createdAt,value
2022-09-03T06:14:21.076Z,13.51
2022-09-03T06:24:20.942Z,13.81
2022-09-03T06:34:21.187Z,13.95
2022-09-03T06:44:21.158Z,14.33
2022-09-03T06:54:21.039Z,14.79
2022-09-03T07:04:21.064Z,15.27
2022-09-03T07:14:21.038Z,15.65
2022-09-03T07:24:21.219Z,15.88
2022-09-03T07:34:22.204Z,16.44
2022-09-03T07:44:21.165Z,16.74
2022-09-03T07:54:21.173Z,17.28
2022-09-03T08:04:21.137Z,17.72
2022-09-03T08:14:21.136Z,18.32
2022-09-03T08:24:21.258Z,18.89
2022-09-03T08:34:21.240Z,18.63
2022-09-03T08:44:21.264Z,19.38
2022-09-03T08:54:21.369Z,19.63
2022-09-03T09:04:21.475Z,19.87
2022-09-03T09:14:21.397Z,20.87
2022-09-03T09:24:21.313Z,20.69
2022-09-03T09:34:21.310Z,21.32
2022-09-03T09:44:21.307Z,20.99
2022-09-03T09:54:21.306Z,21.20
2022-09-03T10:04:21.504Z,20.98
2022-09-03T10:14:21.381Z,20.93
2022-09-03T10:24:21.316Z,21.29
2022-09-03T10:34:21.277Z,21.31
2022-09-03T10:44:21.508Z,21.39
2022-09-03T10:54:21.425Z,21.80
2022-09-03T11:04:21.281Z,21.37
2022-09-03T11:14:21.385Z,22.63
2022-09-03T11:24:21.585Z,21.89
2022-09-03T11:34:23.252Z,22.67
2022-09-03T11:44:21.341Z,22.88
2022-09-03T11:54:21.595Z,22.24
2022-09-03T12:04:21.497Z,22.37
2022-09-03T12:14:21.406Z,22.54
2022-09-03T12:24:21.472Z,22.71
2022-09-03T12:34:21.407Z,22.94
2022-09-03T12:44:21.582Z,22.60
2022-09-03T12:54:21.674Z,22.93
2022-09-03T13:04:21.479Z,22.93
2022-09-03T13:14:21.695Z,23.29
2022-09-03T13:24:21.585Z,23.01
2022-09-03T13:34:21.677Z,23.29
2022-09-03T13:44:21.654Z,22.99
2022-09-03T13:54:42.478Z,23.40
2022-09-03T14:04:21.734Z,23.24
2022-09-03T14:14:21.654Z,23.30
2022-09-03T14:24:21.684Z,22.99
2022-09-03T14:34:21.857Z,23.41
2022-09-03T14:44:21.714Z,23.43
2022-09-03T14:54:21.713Z,23.12
2022-09-03T15:04:21.835Z,23.48
2022-09-03T15:14:21.789Z,23.30
2022-09-03T15:24:21.934Z,23.06
2022-09-03T15:34:21.853Z,22.96
2022-09-03T15:44:21.995Z,23.23
2022-09-03T15:54:21.942Z,22.83
2022-09-03T16:04:22.888Z,22.89
2022-09-03T16:14:22.073Z,22.89
2022-09-03T16:24:22.154Z,22.67
2022-09-03T16:34:21.927Z,22.55
2022-09-03T16:44:21.963Z,22.36
2022-09-03T16:54:22.064Z,22.29
2022-09-03T17:04:22.090Z,22.12
2022-09-03T17:14:22.284Z,21.90
2022-09-03T17:24:21.946Z,21.67
2022-09-03T17:34:22.197Z,21.41
2022-09-03T17:44:22.319Z,21.25
2022-09-03T17:54:22.064Z,20.88
2022-09-03T18:04:22.119Z,20.49
2022-09-03T18:14:22.225Z,20.18
2022-09-03T18:24:22.205Z,19.95
2022-09-03T18:34:22.269Z,19.88
2022-09-03T18:44:22.533Z,19.72
2022-09-03T18:54:22.737Z,19.60
2022-09-03T19:04:22.905Z,19.29
2022-09-03T19:14:22.807Z,19.01
